Jones, Michigan
Current Conditions -  °F | °C
As of 10:14 AM on Monday 24 Nov 2014 (Local Time) from KHAI Reporting Station
Moderate Rain Moderate Rain  
Wind Chill: 54°   Ceiling: 1000
Heat Index: 54°   Visibility: 7mi
Dew Point: 53°   Wind: 8mph
Humidity: 97%   Direction: 200°SSW
Pressure: 29.08"   Gusts: NA
Location:  41.9°N, 85.8°W
Report Text: KHAI 241514Z AUTO 20007KT 7SM RA BKN010 OVC014 12/12 A2908 RMK AO2 T01200115
Loading
Personal Weather Stations






























Interactive Weather Map New forecast layout! Learn more

10-Day Weather Forecast

Advertisements
Track Severe Weather on mobile